This is the latest recevied weather packets stored in our database for station/object N1ICS-1. If no packets are shown the sender has not sent any weather packets the latest 1 day(s).
| Time | Temp. | Humidity | Pressure | Rain* | Wind** | Luminosity | Snow |
|---|---|---|---|---|---|---|---|
| 1778082302 | 11.67° C | 56% | 1015.1 hPa | 0 mm | - | 499 W/m² | - |
| 1778080202 | 11.67° C | 60% | 1014.7 hPa | 0 mm | - | 762 W/m² | - |
| 1778078402 | 11.11° C | 59% | 1014.3 hPa | 0 mm | - | 608 W/m² | - |
| 1778075702 | 10.56° C | 72% | 1014.1 hPa | 0 mm | - | 330 W/m² | - |
| 1778075102 | 10° C | 68% | 1013.9 hPa | 0 mm | - | 499 W/m² | - |
| 1778074202 | 10° C | 74% | 1014.1 hPa | 0 mm | - | 464 W/m² | - |
| 1778071202 | 8.33° C | 91% | 1013.5 hPa | 0 mm | - | 328 W/m² | - |
| 1778070002 | 7.78° C | 96% | 1013.2 hPa | 0 mm | - | 131 W/m² | - |
| 1778065203 | 6.67° C | 99% | 1012.2 hPa | 0 mm | - | 17 W/m² | - |
| 1778064302 | 6.11° C | 98% | 1012 hPa | 0 mm | - | 9 W/m² | - |
| 1778063102 | 6.11° C | 98% | 1012 hPa | 0 mm | - | 1 W/m² | - |
| 1778061902 | 6.11° C | 99% | 1011.7 hPa | 0 mm | - | 0 W/m² | - |
| 1778060102 | 6.11° C | 99% | 1011.2 hPa | 0 mm | - | 0 W/m² | - |
| 1778059502 | 6.11° C | 99% | 1011.3 hPa | 0 mm | - | 0 W/m² | - |
| 1778057402 | 5.56° C | 99% | 1011.2 hPa | 0 mm | - | 0 W/m² | - |
| 1778056502 | 5.56° C | 99% | 1011.1 hPa | 0 mm | - | 0 W/m² | - |
| 1778055002 | 5.56° C | 99% | 1011 hPa | 0 mm | - | 0 W/m² | - |
| 1778053502 | 5.56° C | 99% | 1011.6 hPa | 0 mm | - | 0 W/m² | - |
| 1778052302 | 5.56° C | 99% | 1010.6 hPa | 0.51 mm | - | 0 W/m² | - |
| 1778051403 | 5.56° C | 99% | 1010.8 hPa | 1.02 mm | - | 0 W/m² | - |
| 1778051102 | 5.56° C | 99% | 1011.1 hPa | 1.02 mm | - | 0 W/m² | - |
| 1778049302 | 5.56° C | 98% | 1011.5 hPa | 1.78 mm | - | 0 W/m² | - |
| 1778047803 | 5.56° C | 98% | 1011.7 hPa | 1.78 mm | - | 0 W/m² | - |
| 1778047502 | 5.56° C | 98% | 1011.9 hPa | 2.79 mm | - | 0 W/m² | - |
| 1778045102 | 5.56° C | 98% | 1011.3 hPa | 1.78 mm | - | 0 W/m² | - |
* Rain latest hour (hover to see other rain measurements)
** Current wind speed in m/s (hover to see current wind gust speed)